Gillette, WY

11:24 AM MDT on August 29, 2014 (GMT -0600)
Johnson County | Change Station
CLOSE
Current Station
Airport
Location: Buffalo,
Elevation: 4967 ft
Nearby Weather Stations

Elev 4967 ft 44.38 °N, 106.72 °W | Updated 31 minutes ago

Overcast
Overcast
64 °F
Feels Like 64 °F
N
12
Wind Variable Wind from North

Today
High -- | Low -- °F
--% Chance of Precip.
Yesterday
High -- | Low -- °F
Precip. -- in
6:21 AM 7:44 PM
Waxing Crescent, 15% visible
Pressure 30.01 in
Visibility 10.0 miles
Clouds Overcast 1500 ft
Dew Point 54 °F
Humidity 70%
Rainfall 0.01 in
Snow Depth Not available.
UV 2 out of 12
Pollen 8.30 out of 12
Air Quality Not available.
Flu Activity Not available.
METAR KBYG 291653Z AUTO 35010KT 10SM OVC015 18/12 A3015 RMK AO2 SLP163 T01780122

More Conditions Fewer Conditions

Pressure 30.01 in
Visibility 10.0 miles
Clouds Overcast 1500 ft
Dew Point 54 °F
Humidity 70%
Rainfall 0.01 in
Snow Depth Not available.
UV 2 out of 12
Pollen 8.30 out of 12
Air Quality Not available.
Flu Activity Not available.
METAR KBYG 291653Z AUTO 35010KT 10SM OVC015 18/12 A3015 RMK AO2 SLP163 T01780122

More Conditions Fewer Conditions

10-Day Weather Forecast

Almanac

Astronomy

Aug. 29, 2014 Rise Set
Actual Time 6:21 AM MDT 7:44 PM MDT
Civil Twilight 5:51 AM MDT 8:14 PM MDT
Nautical Twilight 5:14 AM MDT 8:51 PM MDT
Astronomical Twilight 4:35 AM MDT 9:29 PM MDT
Moon 10:24 AM MDT 9:31 PM MDT
Length of Visible Light 14h 23m
Length of Day
13h 22m
Tomorrow will be 2m 56s shorter.
Waxing Crescent, 15% of the Moon is Illuminated
Today
Waxing Crescent
Sep 2
First Quarter
Sep 8
Full
Sep 15
Last Quarter
Sep 24
New

Today's Extremes

State Highs State Lows

Community

WunderPhotos

Upload Photos

1,748,299 photos uploaded!

Nearby

Snow Depth

Station Depth Elevation
Cole Canyon 0 in 5910 ft
Hansen Sawmill 0 in 8360 ft
Cloud Peak Reservoir 0 in 9860 ft
Powder River Pass 0 in 9480 ft
Dome Lake 0 in 8880 ft

Earthquake Activity

City Distance Mag. Time & Date
No recent earthquake activity has been reported nearby.
Minimum magnitude displayed is 2.5.

Coastal Water Temperatures

Place Temperature
No Stations Reporting

Nearby Weather Stations